createdAt,value
2017-05-30T00:00:05.962Z,42.79
2017-05-30T00:00:46.460Z,43.76
2017-05-30T00:01:26.940Z,43.86
2017-05-30T00:02:07.435Z,44.73
2017-05-30T00:02:47.971Z,44.42
2017-05-30T00:03:28.455Z,44.61
2017-05-30T00:04:08.965Z,45
2017-05-30T00:04:49.470Z,45.2
2017-05-30T00:05:29.957Z,45.48
2017-05-30T00:06:10.460Z,45.97
2017-05-30T00:06:50.951Z,46.16
2017-05-30T00:07:31.434Z,46.07
2017-05-30T00:08:11.921Z,46.55
2017-05-30T00:08:54.863Z,46.65
2017-05-30T00:09:35.348Z,46.55
2017-05-30T00:10:15.847Z,46.72
2017-05-30T00:10:56.336Z,47.11
2017-05-30T00:11:36.822Z,47.11
2017-05-30T00:12:17.270Z,47.11
2017-05-30T00:12:57.733Z,46.72
2017-05-30T00:14:45.224Z,46.82
2017-05-30T00:15:25.711Z,46.62
2017-05-30T00:16:06.223Z,46.43
2017-05-30T00:16:46.697Z,46.43
2017-05-30T00:17:27.194Z,46.62
2017-05-30T00:18:07.678Z,46.14
2017-05-30T00:18:48.196Z,46.33
2017-05-30T00:19:28.672Z,45.47
2017-05-30T00:20:09.169Z,45.07
2017-05-30T00:20:50.265Z,44.98
2017-05-30T00:21:30.759Z,44.98
2017-05-30T00:22:11.250Z,44.88
2017-05-30T00:22:51.738Z,44.88
2017-05-30T00:23:32.210Z,44.78
2017-05-30T00:24:12.673Z,44.78
2017-05-30T00:24:53.127Z,45.17
2017-05-30T00:25:33.579Z,44.88
2017-05-30T00:26:14.038Z,45.17
2017-05-30T00:28:11.713Z,44.4
2017-05-30T00:28:52.200Z,44.3
2017-05-30T00:29:32.681Z,44.49
2017-05-30T00:30:13.177Z,43.52
2017-05-30T00:30:53.661Z,44.59
2017-05-30T00:31:34.894Z,43.72
2017-05-30T00:32:15.397Z,43.52
2017-05-30T00:32:55.895Z,43.31
2017-05-30T00:33:36.384Z,43.6
2017-05-30T00:34:16.877Z,43.41
2017-05-30T00:34:57.360Z,43.41
2017-05-30T00:35:37.852Z,43.6
2017-05-30T00:36:18.350Z,42.72
2017-05-30T00:36:59.675Z,43.33
2017-05-30T00:37:40.998Z,42.82
2017-05-30T00:38:22.180Z,42.92
2017-05-30T00:39:02.676Z,42.36
2017-05-30T00:39:43.195Z,41.78
2017-05-30T00:40:23.691Z,41.68
2017-05-30T00:41:04.186Z,41.47
2017-05-30T00:41:45.406Z,41.39
2017-05-30T00:42:25.888Z,41.47
2017-05-30T00:43:06.390Z,40.79
2017-05-30T00:43:46.889Z,40.89
2017-05-30T00:44:27.393Z,40.91
2017-05-30T00:45:07.877Z,41.1
2017-05-30T00:45:48.358Z,40.23
2017-05-30T00:46:28.834Z,40.33
2017-05-30T00:47:09.329Z,40.52
2017-05-30T00:47:49.814Z,40.23
2017-05-30T00:48:30.904Z,40.33
2017-05-30T00:49:11.398Z,40.23
2017-05-30T00:49:51.888Z,40.42
2017-05-30T00:50:32.328Z,40.33
2017-05-30T00:51:13.484Z,39.74
2017-05-30T00:51:53.919Z,39.55
2017-05-30T00:52:34.376Z,39.55
2017-05-30T00:53:14.820Z,39.26
2017-05-30T00:53:55.312Z,38.87
2017-05-30T00:54:36.756Z,39.06
2017-05-30T00:55:17.257Z,38.87
2017-05-30T00:55:57.751Z,38.78
2017-05-30T00:56:39.002Z,38.68
2017-05-30T00:57:19.488Z,38.09
2017-05-30T00:57:59.984Z,38.19
2017-05-30T00:58:40.473Z,38.29
2017-05-30T00:59:20.963Z,38.39
2017-05-30T01:00:01.458Z,37.9
2017-05-30T01:00:41.959Z,37.61
2017-05-30T01:01:22.440Z,37.32
2017-05-30T01:02:02.942Z,37.61
2017-05-30T01:02:43.425Z,37.61
2017-05-30T01:03:23.916Z,37.03
2017-05-30T01:04:04.407Z,36.74
2017-05-30T01:04:44.908Z,36.93
2017-05-30T01:05:25.367Z,36.74
2017-05-30T01:06:05.843Z,36.83
2017-05-30T01:06:46.336Z,36.93
2017-05-30T01:07:26.834Z,37.03
2017-05-30T01:08:07.334Z,36.93
2017-05-30T01:08:47.878Z,37.03
2017-05-30T01:09:28.387Z,37.03
2017-05-30T01:10:08.872Z,38
2017-05-30T01:10:49.383Z,37.41
2017-05-30T01:11:29.813Z,38.39
2017-05-30T01:13:27.568Z,40.42
2017-05-30T01:14:08.012Z,40.61
2017-05-30T01:14:48.441Z,42.46
2017-05-30T01:16:35.937Z,42.82
2017-05-30T01:17:16.414Z,43.09
2017-05-30T01:17:56.915Z,44.06
2017-05-30T01:18:37.412Z,43.48
2017-05-30T01:19:17.913Z,43.58
2017-05-30T01:19:58.410Z,45.13
2017-05-30T01:20:38.889Z,43.29
2017-05-30T01:21:19.441Z,45.03
2017-05-30T01:21:59.876Z,45.22
2017-05-30T01:22:40.367Z,45.03
2017-05-30T01:23:20.876Z,44.74
2017-05-30T01:24:01.357Z,45.4
2017-05-30T01:24:42.837Z,45.61
2017-05-30T01:25:23.328Z,45.4
2017-05-30T01:26:03.816Z,45.3
2017-05-30T01:26:44.314Z,45.03
2017-05-30T01:27:24.807Z,46
2017-05-30T01:28:05.301Z,46.39
2017-05-30T01:28:45.792Z,45.03
2017-05-30T01:29:26.269Z,46
2017-05-30T01:31:23.960Z,46.29
2017-05-30T01:32:04.396Z,46.46
2017-05-30T01:32:44.888Z,46.36
2017-05-30T01:33:25.384Z,45.78
2017-05-30T01:34:05.872Z,45.4
2017-05-30T01:34:46.352Z,45.9
2017-05-30T01:35:26.866Z,45.9
2017-05-30T01:36:07.357Z,45.61
2017-05-30T01:36:47.845Z,45.22
2017-05-30T01:37:28.875Z,44.35
2017-05-30T01:38:09.351Z,45.03
2017-05-30T01:38:49.796Z,44.84
2017-05-30T01:39:30.243Z,43.38
2017-05-30T01:40:10.703Z,43.19
2017-05-30T01:40:51.185Z,44.54
2017-05-30T01:41:31.670Z,43.77
2017-05-30T01:42:12.169Z,44.54
2017-05-30T01:42:52.666Z,43.58
2017-05-30T01:43:33.173Z,43.38
2017-05-30T01:44:13.674Z,43.19
2017-05-30T01:44:54.153Z,42.8
2017-05-30T01:45:34.656Z,42.9
2017-05-30T01:46:15.148Z,42.71
2017-05-30T01:46:55.624Z,42.61
2017-05-30T01:47:36.856Z,42.71
2017-05-30T01:49:24.361Z,43.48
2017-05-30T01:50:04.851Z,43.58
2017-05-30T01:50:46.313Z,43.29
2017-05-30T01:51:26.806Z,44.54
2017-05-30T01:52:07.285Z,44.35
2017-05-30T01:52:48.382Z,44.35
2017-05-30T01:53:28.877Z,44.84
2017-05-30T01:54:09.364Z,45.22
2017-05-30T01:54:49.863Z,45.51
2017-05-30T01:55:30.365Z,45.81
2017-05-30T01:56:10.848Z,46
2017-05-30T01:56:52.028Z,45.81
2017-05-30T01:57:32.514Z,46
2017-05-30T01:58:14.711Z,46.58
2017-05-30T01:58:55.213Z,46.66
2017-05-30T01:59:35.703Z,46.94
2017-05-30T02:00:16.199Z,47.36
2017-05-30T02:00:56.681Z,47.91
2017-05-30T02:01:37.185Z,48.3
2017-05-30T02:02:17.669Z,48.49
2017-05-30T02:02:59.125Z,48.49
2017-05-30T02:03:39.617Z,48.69
2017-05-30T02:04:20.160Z,49.37
2017-05-30T02:05:02.303Z,49.37
2017-05-30T02:05:42.777Z,49.27
2017-05-30T02:06:23.266Z,49.37
2017-05-30T02:07:03.766Z,49.37
2017-05-30T02:07:44.276Z,49.65
2017-05-30T02:08:24.779Z,49.75
2017-05-30T02:09:05.268Z,49.75
2017-05-30T02:09:45.765Z,49.75
2017-05-30T02:10:26.285Z,50.14
2017-05-30T02:11:06.777Z,50.24
2017-05-30T02:11:47.820Z,50.12
2017-05-30T02:12:28.310Z,50.31
2017-05-30T02:13:08.764Z,50.52
2017-05-30T02:13:49.251Z,50.31
2017-05-30T02:14:29.751Z,50.4
2017-05-30T02:15:10.240Z,50.6
2017-05-30T02:15:50.734Z,50.89
2017-05-30T02:16:31.229Z,50.5
2017-05-30T02:17:11.716Z,50.5
2017-05-30T02:17:52.208Z,50.6
2017-05-30T02:18:32.688Z,50.7
2017-05-30T02:19:13.881Z,50.5
2017-05-30T02:19:55.126Z,51.08
2017-05-30T02:20:35.617Z,50.89
2017-05-30T02:21:16.106Z,50.21
2017-05-30T02:21:56.586Z,50.4
2017-05-30T02:22:37.079Z,50.4
2017-05-30T02:23:17.568Z,51.08
2017-05-30T02:23:59.636Z,50.89
2017-05-30T02:24:40.129Z,51.37
2017-05-30T02:25:20.629Z,51.18
2017-05-30T02:26:02.734Z,51.28
2017-05-30T02:26:43.208Z,51.56
2017-05-30T02:27:23.655Z,52.24
2017-05-30T02:28:04.125Z,52.34
2017-05-30T02:30:17.594Z,53.86
2017-05-30T02:30:58.086Z,54.51
2017-05-30T02:31:38.577Z,54.35
2017-05-30T02:32:20.779Z,54.99
2017-05-30T02:33:02.770Z,54.93
2017-05-30T02:33:43.289Z,54.93
2017-05-30T02:34:23.780Z,55.09
2017-05-30T02:35:04.262Z,55.38
2017-05-30T02:35:44.766Z,55.11
2017-05-30T02:36:25.260Z,54.9
2017-05-30T02:37:05.758Z,55.47
2017-05-30T02:37:46.261Z,55.67
2017-05-30T02:38:27.548Z,55.38
2017-05-30T02:39:08.777Z,55.77
2017-05-30T02:39:49.271Z,55.96
2017-05-30T02:40:29.757Z,56.54
2017-05-30T02:41:10.257Z,56.25
2017-05-30T02:41:50.741Z,56.25
2017-05-30T02:42:31.229Z,56.05
2017-05-30T02:43:11.734Z,56.25
2017-05-30T02:43:52.225Z,56.05
2017-05-30T02:44:32.708Z,56.15
2017-05-30T02:45:13.158Z,56.05
2017-05-30T02:45:53.607Z,56.35
2017-05-30T02:46:34.063Z,56.25
2017-05-30T02:48:31.685Z,55.29
2017-05-30T02:49:12.190Z,55.87
2017-05-30T02:49:52.697Z,55.77
2017-05-30T02:50:34.160Z,55.87
2017-05-30T02:51:14.647Z,56.05
2017-05-30T02:53:07.173Z,56.63
2017-05-30T02:53:47.681Z,56.15
2017-05-30T02:54:28.172Z,56.54
2017-05-30T02:55:08.642Z,56.51
2017-05-30T02:55:49.127Z,56.45
2017-05-30T02:56:29.634Z,57.19
2017-05-30T02:57:10.129Z,56.61
2017-05-30T02:57:50.625Z,56.32
2017-05-30T02:58:31.130Z,56.9
2017-05-30T02:59:12.391Z,56.9
2017-05-30T02:59:52.881Z,56.9
2017-05-30T03:00:33.384Z,56.99
2017-05-30T03:01:13.881Z,57.09
2017-05-30T03:01:54.379Z,56.71
2017-05-30T03:02:35.762Z,57.38
2017-05-30T03:03:16.242Z,57.19
2017-05-30T03:03:56.700Z,57.38
2017-05-30T03:04:37.138Z,57.29
2017-05-30T03:05:17.622Z,57.67
2017-05-30T03:05:58.111Z,57.29
2017-05-30T03:06:38.621Z,56.71
2017-05-30T03:07:19.108Z,57.19
2017-05-30T03:08:00.240Z,56.9
2017-05-30T03:08:41.394Z,57.29
2017-05-30T03:09:21.843Z,57.38
2017-05-30T03:10:02.301Z,57.19
2017-05-30T03:11:49.799Z,56.9
2017-05-30T03:12:30.251Z,57.57
2017-05-30T03:13:10.746Z,57.48
2017-05-30T03:13:51.243Z,57.48
2017-05-30T03:14:32.984Z,57.19
2017-05-30T03:15:13.481Z,57.48
2017-05-30T03:15:53.957Z,57.57
2017-05-30T03:16:34.443Z,57.77
2017-05-30T03:17:14.970Z,57.87
2017-05-30T03:17:55.458Z,57.77
2017-05-30T03:18:35.933Z,57.48
2017-05-30T03:19:16.404Z,57.77
2017-05-30T03:19:57.664Z,57.77
2017-05-30T03:20:38.144Z,57.87
2017-05-30T03:21:18.598Z,57.77
2017-05-30T03:21:59.084Z,58.06
2017-05-30T03:22:39.566Z,57.77
2017-05-30T03:23:20.036Z,57.77
2017-05-30T03:24:00.513Z,57.67
2017-05-30T03:24:40.992Z,57.87
2017-05-30T03:25:21.467Z,57.77
2017-05-30T03:26:01.965Z,57.77
2017-05-30T03:26:43.080Z,57.87
2017-05-30T03:28:35.636Z,58.25
2017-05-30T03:29:16.110Z,58.83
2017-05-30T03:29:56.599Z,58.42
2017-05-30T03:30:38.321Z,58.22
2017-05-30T03:31:18.801Z,58.51
2017-05-30T03:31:59.297Z,58.73
2017-05-30T03:32:39.794Z,58.25
2017-05-30T03:33:20.306Z,58.25
2017-05-30T03:34:00.774Z,58.35
2017-05-30T03:34:41.276Z,58.45
2017-05-30T03:35:21.810Z,58.64
2017-05-30T03:36:02.273Z,58.25
2017-05-30T03:36:42.756Z,58.73
2017-05-30T03:37:23.260Z,58.42
2017-05-30T03:38:04.589Z,58.7
2017-05-30T03:38:45.076Z,59.67
2017-05-30T03:39:25.524Z,59.58
2017-05-30T03:41:13.018Z,59.31
2017-05-30T03:41:53.491Z,59.19
2017-05-30T03:42:33.978Z,59
2017-05-30T03:43:14.452Z,59.48
2017-05-30T03:43:54.948Z,59.67
2017-05-30T03:44:35.440Z,60.25
2017-05-30T03:45:15.878Z,60.73
2017-05-30T03:47:13.540Z,60.44
2017-05-30T03:47:54.043Z,60.73
2017-05-30T03:48:35.292Z,60.93
2017-05-30T03:49:15.786Z,60.64
2017-05-30T03:49:56.276Z,61.41
2017-05-30T03:50:36.769Z,60.93
2017-05-30T03:51:17.268Z,60.73
2017-05-30T03:51:57.744Z,61.22
2017-05-30T03:52:38.244Z,60.54
2017-05-30T03:53:18.746Z,60.44
2017-05-30T03:53:59.233Z,60.54
2017-05-30T03:54:39.724Z,61.12
2017-05-30T03:55:20.213Z,61.41
2017-05-30T03:56:00.723Z,62.08
2017-05-30T03:56:42.215Z,62.73
2017-05-30T03:57:22.711Z,62.82
2017-05-30T03:58:03.209Z,63.21
2017-05-30T03:58:43.697Z,63.12
2017-05-30T03:59:24.198Z,63.31
2017-05-30T04:00:04.687Z,63.12
2017-05-30T04:00:45.175Z,63.79
2017-05-30T04:01:26.313Z,63.79
2017-05-30T04:02:06.809Z,63.7
2017-05-30T04:02:47.311Z,63.7
2017-05-30T04:03:28.583Z,63.98
2017-05-30T04:04:09.079Z,64.18
2017-05-30T04:04:49.560Z,63.79
2017-05-30T04:05:30.042Z,64.28
2017-05-30T04:06:10.551Z,64.28
2017-05-30T04:06:51.042Z,64.47
2017-05-30T04:07:31.538Z,64.86
2017-05-30T04:08:12.000Z,65.01
2017-05-30T04:08:52.470Z,66.08
2017-05-30T04:11:05.164Z,66.46
2017-05-30T04:11:45.656Z,66.75
2017-05-30T04:12:26.149Z,66.94
2017-05-30T04:13:07.564Z,66.75
2017-05-30T04:13:48.050Z,66.75
2017-05-30T04:14:28.550Z,67.04
2017-05-30T04:15:09.041Z,66.46
2017-05-30T04:15:49.545Z,66.85
2017-05-30T04:16:30.011Z,66.75
2017-05-30T04:17:10.500Z,66.56
2017-05-30T04:17:50.975Z,66.75
2017-05-30T04:18:31.476Z,66.75
2017-05-30T04:19:11.956Z,66.36
2017-05-30T04:19:52.446Z,66.17
2017-05-30T04:20:32.945Z,65.98
2017-05-30T04:21:13.425Z,65.78
2017-05-30T04:21:53.918Z,65.53
2017-05-30T04:22:34.412Z,65.34
2017-05-30T04:23:14.892Z,64.76
2017-05-30T04:23:55.398Z,64.56
2017-05-30T04:24:36.468Z,64.56
2017-05-30T04:25:16.967Z,63.98
2017-05-30T04:25:57.465Z,63.7
2017-05-30T04:26:37.955Z,63.34
2017-05-30T04:27:18.430Z,63.15
2017-05-30T04:27:58.921Z,63.15
2017-05-30T04:28:39.415Z,62.76
2017-05-30T04:29:19.915Z,63.92
2017-05-30T04:30:00.415Z,64.5
2017-05-30T04:30:40.891Z,64.5
2017-05-30T04:31:21.391Z,64.31
2017-05-30T04:32:01.861Z,64.21
2017-05-30T04:32:42.350Z,64.28
2017-05-30T04:33:22.844Z,63.82
2017-05-30T04:34:03.320Z,63.63
2017-05-30T04:34:43.809Z,63.63
2017-05-30T04:35:24.359Z,63.28
2017-05-30T04:36:04.794Z,63.15
2017-05-30T04:36:45.302Z,63.15
2017-05-30T04:37:25.794Z,62.76
2017-05-30T04:38:06.287Z,62.6
2017-05-30T04:38:46.775Z,62.98
2017-05-30T04:39:27.273Z,63.28
2017-05-30T04:40:08.586Z,62.89
2017-05-30T04:40:49.079Z,62.21
2017-05-30T04:41:29.564Z,62.7
2017-05-30T04:42:10.058Z,62.76
2017-05-30T04:42:50.550Z,62.6
2017-05-30T04:43:31.042Z,62.7
2017-05-30T04:44:12.163Z,62.4
2017-05-30T04:44:52.664Z,62.7
2017-05-30T04:45:33.173Z,62.98
2017-05-30T04:46:15.163Z,62.7
2017-05-30T04:46:56.398Z,62.21
2017-05-30T04:47:36.893Z,62.89
2017-05-30T04:48:17.390Z,63.18
2017-05-30T04:48:57.877Z,63.28
2017-05-30T04:49:38.437Z,62.79
2017-05-30T04:50:19.587Z,62.7
2017-05-30T04:51:00.076Z,62.21
2017-05-30T04:51:40.567Z,62.12
2017-05-30T04:52:21.053Z,62.15
2017-05-30T04:53:01.542Z,61.83
2017-05-30T04:53:42.034Z,61.86
2017-05-30T04:54:22.525Z,61.83
2017-05-30T04:55:04.487Z,62.02
2017-05-30T04:55:44.978Z,61.95
2017-05-30T04:56:25.477Z,61.86
2017-05-30T04:57:05.979Z,60.89
2017-05-30T04:57:46.426Z,60.79
2017-05-30T04:58:26.881Z,60.79
2017-05-30T04:59:07.378Z,60.69
2017-05-30T04:59:47.885Z,59.15
2017-05-30T05:00:28.355Z,59.25
2017-05-30T05:01:09.681Z,59.34
2017-05-30T05:01:50.176Z,59.34
2017-05-30T05:02:31.392Z,59.05
2017-05-30T05:03:11.881Z,59.53
2017-05-30T05:03:53.996Z,60.6
2017-05-30T05:04:34.490Z,59.95
2017-05-30T05:05:14.994Z,60.41
2017-05-30T05:05:56.398Z,59.25
2017-05-30T05:06:36.889Z,58.5
2017-05-30T05:07:17.378Z,58.12
2017-05-30T05:09:30.089Z,56.47
2017-05-30T05:10:10.620Z,56.09
2017-05-30T05:10:51.057Z,55.99
2017-05-30T05:11:31.544Z,56.37
2017-05-30T05:12:12.034Z,55.79
2017-05-30T05:12:53.153Z,55.7
2017-05-30T05:13:33.641Z,55.02
2017-05-30T05:14:14.136Z,55.31
2017-05-30T05:14:54.625Z,55.02
2017-05-30T05:15:35.114Z,55.02
2017-05-30T05:16:16.494Z,54.83
2017-05-30T05:16:56.993Z,55.02
2017-05-30T05:17:37.485Z,55.31
2017-05-30T05:18:17.975Z,55.21
2017-05-30T05:18:59.311Z,55.11
2017-05-30T05:19:39.783Z,55.21
2017-05-30T05:20:20.271Z,54.99
2017-05-30T05:21:00.762Z,55.11
2017-05-30T05:21:41.248Z,55.11
2017-05-30T05:22:21.744Z,55.11
2017-05-30T05:23:02.222Z,55.02
2017-05-30T05:23:42.715Z,55.7
2017-05-30T05:24:23.196Z,55.31
2017-05-30T05:25:03.686Z,55.02
2017-05-30T05:25:44.173Z,55.02
2017-05-30T05:26:25.660Z,54.93
2017-05-30T05:27:06.156Z,55.11
2017-05-30T05:27:46.690Z,54.53
2017-05-30T05:28:27.203Z,54.35
2017-05-30T05:29:07.724Z,54.44
2017-05-30T05:29:48.219Z,55.21
2017-05-30T05:30:28.710Z,54.73
2017-05-30T05:31:09.202Z,54.83
2017-05-30T05:31:49.689Z,55.31
2017-05-30T05:34:07.579Z,55.21
2017-05-30T05:34:48.046Z,54.93
2017-05-30T05:35:28.494Z,55.11
2017-05-30T05:36:08.931Z,54.57
2017-05-30T05:36:49.352Z,54.35
2017-05-30T05:37:29.803Z,54.53
2017-05-30T05:38:10.252Z,54.63
2017-05-30T05:38:50.764Z,54.63
2017-05-30T05:39:31.257Z,54.25
2017-05-30T05:40:11.749Z,54.73
2017-05-30T05:40:52.221Z,53.96
2017-05-30T05:41:32.672Z,53.86
2017-05-30T05:42:13.097Z,53.67
2017-05-30T05:42:53.572Z,53.86
2017-05-30T05:43:34.074Z,53.79
2017-05-30T05:44:14.490Z,53.47
2017-05-30T05:44:55.015Z,53.77
2017-05-30T05:45:35.469Z,53.57
2017-05-30T05:46:15.904Z,53.57
2017-05-30T05:46:56.328Z,53.77
2017-05-30T05:47:36.779Z,53.77
2017-05-30T05:48:17.224Z,54.05
2017-05-30T05:48:57.794Z,54.35
2017-05-30T05:49:38.299Z,54.53
2017-05-30T05:50:18.737Z,54.08
2017-05-30T05:50:59.146Z,54.27
2017-05-30T05:51:39.663Z,54.63
2017-05-30T05:52:20.193Z,54.37
2017-05-30T05:53:00.888Z,54.73
2017-05-30T05:53:41.420Z,54.44
2017-05-30T05:54:21.962Z,54.35
2017-05-30T05:55:02.485Z,54.83
2017-05-30T05:55:42.972Z,54.37
2017-05-30T05:56:23.551Z,53.96
2017-05-30T05:57:04.166Z,53.59
2017-05-30T05:57:44.607Z,53.57
2017-05-30T05:58:25.057Z,53.77
2017-05-30T05:59:05.486Z,53.77
2017-05-30T05:59:45.982Z,53.99
2017-05-30T06:00:26.490Z,54.37
2017-05-30T06:01:06.984Z,54.37
2017-05-30T06:01:47.560Z,54.63
2017-05-30T06:02:28.072Z,55.02
2017-05-30T06:03:08.583Z,55.79
2017-05-30T06:03:49.109Z,56.67
2017-05-30T06:04:29.570Z,56.47
2017-05-30T06:05:10.092Z,57.21
2017-05-30T06:05:50.646Z,57.79
2017-05-30T06:06:31.269Z,58.25
2017-05-30T06:07:11.756Z,58.47
2017-05-30T06:07:52.269Z,58.64
2017-05-30T06:08:32.766Z,58.93
2017-05-30T06:10:30.593Z,59.02
2017-05-30T06:11:11.174Z,58.83
2017-05-30T06:11:51.672Z,58.25
2017-05-30T06:12:32.200Z,57.77
2017-05-30T06:13:12.719Z,58.06
2017-05-30T06:13:53.267Z,58.06
2017-05-30T06:14:33.859Z,58.45
2017-05-30T06:15:14.413Z,58.15
2017-05-30T06:15:56.438Z,57.48
2017-05-30T06:16:36.926Z,57.29
2017-05-30T06:17:17.434Z,57.89
2017-05-30T06:17:57.928Z,58.28
2017-05-30T06:18:38.424Z,58.37
2017-05-30T06:19:18.908Z,57.7
2017-05-30T06:19:59.420Z,58.28
2017-05-30T06:20:39.931Z,58.57
2017-05-30T06:21:21.346Z,59.15
2017-05-30T06:22:01.910Z,58.28
2017-05-30T06:22:42.391Z,59.15
2017-05-30T06:23:23.437Z,59.25
2017-05-30T06:24:03.941Z,59.34
2017-05-30T06:24:44.480Z,59.05
2017-05-30T06:25:25.038Z,58.76
2017-05-30T06:26:05.598Z,59.25
2017-05-30T06:26:47.011Z,58.37
2017-05-30T06:27:27.532Z,57.7
2017-05-30T06:28:08.929Z,57.79
2017-05-30T06:28:50.924Z,57.92
2017-05-30T06:29:31.429Z,57.51
2017-05-30T06:30:11.937Z,57.34
2017-05-30T06:30:52.438Z,57.73
2017-05-30T06:31:32.912Z,57.05
2017-05-30T06:32:13.418Z,57.05
2017-05-30T06:32:53.926Z,56.79
2017-05-30T06:33:34.430Z,55.99
2017-05-30T06:34:14.929Z,56.18
2017-05-30T06:34:55.459Z,55.6
2017-05-30T06:35:35.969Z,55.53
2017-05-30T06:36:16.535Z,55.53
2017-05-30T06:36:57.841Z,55.82
2017-05-30T06:37:38.333Z,55.63
2017-05-30T06:38:18.839Z,55.34
2017-05-30T06:38:59.341Z,54.75
2017-05-30T06:39:39.836Z,54.85
2017-05-30T06:40:20.309Z,55.34
2017-05-30T06:41:00.820Z,55.34
2017-05-30T06:41:41.273Z,55.43
2017-05-30T06:42:21.789Z,55.34
2017-05-30T06:43:02.249Z,55.05
2017-05-30T06:43:42.676Z,55.05
2017-05-30T06:46:00.889Z,54.66
2017-05-30T06:46:41.382Z,54.27
2017-05-30T06:47:22.849Z,54.66
2017-05-30T06:48:03.338Z,54.08
2017-05-30T06:48:43.844Z,53.59
2017-05-30T06:49:24.337Z,53.59
2017-05-30T06:50:04.826Z,54.27
2017-05-30T06:50:45.318Z,54.95
2017-05-30T06:51:26.705Z,55.43
2017-05-30T06:52:07.187Z,56.5
2017-05-30T06:54:00.274Z,57.66
2017-05-30T06:54:40.759Z,57.73
2017-05-30T06:55:21.278Z,59.56
2017-05-30T06:56:02.758Z,58.98
2017-05-30T06:56:43.982Z,58.6
2017-05-30T07:00:15.042Z,59.18
2017-05-30T07:00:55.589Z,60.14
2017-05-30T07:01:36.984Z,62.18
2017-05-30T07:02:17.480Z,60.47
2017-05-30T07:02:57.947Z,60.27
2017-05-30T07:03:38.439Z,59.95
2017-05-30T07:04:18.980Z,60.72
2017-05-30T07:04:59.404Z,58.4
2017-05-30T07:05:39.914Z,58.7
2017-05-30T07:06:20.414Z,59.01
2017-05-30T07:07:00.880Z,58.31
2017-05-30T07:07:41.406Z,59.28
2017-05-30T07:08:21.924Z,58.02
2017-05-30T07:09:02.453Z,57.54
2017-05-30T07:09:42.892Z,57.56
2017-05-30T07:10:24.825Z,57.05
2017-05-30T07:11:05.318Z,57.24
2017-05-30T07:11:45.796Z,56.86
2017-05-30T07:12:26.296Z,56.67
2017-05-30T07:13:06.794Z,56.98
2017-05-30T07:13:47.296Z,56.11
2017-05-30T07:14:28.613Z,56.4
2017-05-30T07:15:09.054Z,56.3
2017-05-30T07:15:49.513Z,55.73
2017-05-30T07:16:30.003Z,55.56
2017-05-30T07:17:10.490Z,55.46
2017-05-30T07:17:51.716Z,54.59
2017-05-30T07:18:32.207Z,54.43
2017-05-30T07:19:12.725Z,54.33
2017-05-30T07:19:53.189Z,53.55
2017-05-30T07:20:33.654Z,53.36
2017-05-30T07:21:14.126Z,53.29
2017-05-30T07:21:55.544Z,53.36
2017-05-30T07:22:36.051Z,53.09
2017-05-30T07:23:16.553Z,52.32
2017-05-30T07:23:57.811Z,52.61
2017-05-30T07:24:38.303Z,52.42
2017-05-30T07:25:18.780Z,52.49
2017-05-30T07:25:59.277Z,51.84
2017-05-30T07:26:39.779Z,52.06
2017-05-30T07:27:20.283Z,51.18
2017-05-30T07:28:01.722Z,51.09
2017-05-30T07:28:42.722Z,51.09
2017-05-30T07:29:23.204Z,50.34
2017-05-30T07:30:03.677Z,49.85
2017-05-30T07:30:45.104Z,50.16
2017-05-30T07:31:25.660Z,49.39
2017-05-30T07:32:06.141Z,49.12
2017-05-30T07:32:46.663Z,48.83
2017-05-30T07:33:27.115Z,48.71
2017-05-30T07:34:09.441Z,49.39
2017-05-30T07:34:50.094Z,48.44
2017-05-30T07:35:30.546Z,48.05
2017-05-30T07:37:28.495Z,47.59
2017-05-30T07:38:09.069Z,46.91
2017-05-30T07:38:49.631Z,46.52
2017-05-30T07:39:30.112Z,47.3
2017-05-30T07:40:10.594Z,47.01
2017-05-30T07:40:51.077Z,46.04
2017-05-30T07:41:31.575Z,46.52
2017-05-30T07:42:12.051Z,46.33
2017-05-30T07:42:52.525Z,46.14
2017-05-30T07:43:32.980Z,46.23
2017-05-30T07:45:20.542Z,46.91
2017-05-30T07:46:01.002Z,46.42
2017-05-30T07:46:41.540Z,46.33
2017-05-30T07:47:22.096Z,46.14
2017-05-30T07:48:02.659Z,46.11
2017-05-30T07:48:43.079Z,46.31
2017-05-30T07:49:23.705Z,46.79
2017-05-30T07:50:04.181Z,47.18
2017-05-30T07:50:44.793Z,46.98
2017-05-30T07:52:42.498Z,47.28
2017-05-30T07:53:22.960Z,47.66
2017-05-30T07:54:04.268Z,47.18
2017-05-30T07:55:56.880Z,46.91
2017-05-30T07:56:37.373Z,47.18
2017-05-30T07:57:17.880Z,46.79
2017-05-30T07:57:58.387Z,47.28
2017-05-30T07:58:39.891Z,47.08
2017-05-30T07:59:20.398Z,46.89
2017-05-30T08:00:01.445Z,46.14
2017-05-30T08:00:41.949Z,46.52
2017-05-30T08:01:22.484Z,46.25
2017-05-30T08:02:03.007Z,45.67
2017-05-30T08:02:43.456Z,44.99
2017-05-30T08:03:23.946Z,45.28
2017-05-30T08:04:04.454Z,45.09
2017-05-30T08:04:45.000Z,45.36
2017-05-30T08:05:25.483Z,46.14
2017-05-30T08:06:06.008Z,44.99
2017-05-30T08:06:46.495Z,44.62
2017-05-30T08:07:26.970Z,44.04
2017-05-30T08:08:07.465Z,43.87
2017-05-30T08:08:47.904Z,43.48
2017-05-30T08:10:45.790Z,43.09
2017-05-30T08:12:39.625Z,42.33
2017-05-30T08:13:22.147Z,42.14
2017-05-30T08:14:02.923Z,41.86
2017-05-30T08:14:43.659Z,41.67
2017-05-30T08:15:24.222Z,42.21
2017-05-30T08:16:04.740Z,42.21
2017-05-30T08:16:45.342Z,42.11
2017-05-30T08:17:25.751Z,42.21
2017-05-30T08:18:06.286Z,41.85
2017-05-30T08:18:46.814Z,41.94
2017-05-30T08:19:27.452Z,41.57
2017-05-30T08:20:07.989Z,40.99
2017-05-30T08:20:48.491Z,41.19
2017-05-30T08:21:29.010Z,41.16
2017-05-30T08:22:09.847Z,41.55
2017-05-30T08:22:50.437Z,40.8
2017-05-30T08:23:30.909Z,41.16
2017-05-30T08:24:11.430Z,41.26
2017-05-30T08:24:51.996Z,41.65
2017-05-30T08:25:32.451Z,42.21
2017-05-30T08:26:13.741Z,42.21
2017-05-30T08:26:54.214Z,42.11
2017-05-30T08:27:34.738Z,41.75
2017-05-30T08:28:16.292Z,41.28
2017-05-30T08:28:56.801Z,41.28
2017-05-30T08:29:37.449Z,41.06
2017-05-30T08:30:17.933Z,41.16
2017-05-30T08:30:58.554Z,41.65
2017-05-30T08:31:39.107Z,40.8
2017-05-30T08:32:19.626Z,40.89
2017-05-30T08:33:01.210Z,40.99
2017-05-30T08:33:50.877Z,40.7
2017-05-30T08:34:32.573Z,40.6
2017-05-30T08:35:15.374Z,40.41
2017-05-30T08:35:59.527Z,40.72
2017-05-30T08:36:40.860Z,39.94
2017-05-30T08:37:29.577Z,40.8
2017-05-30T08:38:11.724Z,40.78
2017-05-30T08:38:57.367Z,42.11
2017-05-30T08:39:40.220Z,41.65
2017-05-30T08:40:24.801Z,40.89
2017-05-30T08:42:40.707Z,40.89
2017-05-30T08:43:21.309Z,40.62
2017-05-30T08:44:01.792Z,40.42
2017-05-30T08:44:42.280Z,39.84
2017-05-30T08:45:22.758Z,40.6
2017-05-30T08:46:03.294Z,41.09
2017-05-30T08:46:43.751Z,40.52
2017-05-30T08:47:24.266Z,40.52
2017-05-30T08:48:04.789Z,40.16
2017-05-30T08:48:45.316Z,39.49
2017-05-30T08:49:26.503Z,39.86
2017-05-30T08:50:07.105Z,39.76
2017-05-30T08:50:47.616Z,39.47
2017-05-30T08:51:28.092Z,38.71
2017-05-30T08:52:08.693Z,38.71
2017-05-30T08:52:49.116Z,38.81
2017-05-30T08:53:29.630Z,38.61
2017-05-30T08:54:10.107Z,37.93
2017-05-30T08:54:50.578Z,37.63
2017-05-30T08:55:31.074Z,37.27
2017-05-30T08:56:12.496Z,37.07
2017-05-30T08:56:52.987Z,37.27
2017-05-30T08:57:33.443Z,37.09
2017-05-30T08:58:14.666Z,36.23
2017-05-30T08:58:55.153Z,35.48
2017-05-30T08:59:35.655Z,33.56
2017-05-30T09:00:16.116Z,31.76
2017-05-30T09:00:56.668Z,30.98
2017-05-30T09:01:37.933Z,30.21
2017-05-30T09:02:18.545Z,29.82
2017-05-30T09:02:59.081Z,30.39
2017-05-30T09:03:39.642Z,30.68
2017-05-30T09:04:21.090Z,30.1
2017-05-30T09:05:01.580Z,29.24
2017-05-30T09:05:42.092Z,28.67
2017-05-30T09:06:22.561Z,27.43
2017-05-30T09:07:03.586Z,26.07
2017-05-30T09:08:51.065Z,26.05
2017-05-30T09:09:31.551Z,25.85
2017-05-30T09:10:12.045Z,26.32
2017-05-30T09:10:52.546Z,27.67
2017-05-30T09:11:33.030Z,27.77
2017-05-30T09:12:13.557Z,27.85
2017-05-30T09:12:54.110Z,27.94
2017-05-30T09:13:34.557Z,28.44
2017-05-30T09:14:15.077Z,28.23
2017-05-30T09:14:55.540Z,27.94
2017-05-30T09:15:36.028Z,27.67
2017-05-30T09:16:16.508Z,27.29
2017-05-30T09:16:56.997Z,27.37
2017-05-30T09:17:37.615Z,27.85
2017-05-30T09:18:18.767Z,27.95
2017-05-30T09:18:59.477Z,28.15
2017-05-30T09:19:40.970Z,28.05
2017-05-30T09:20:21.598Z,28.43
2017-05-30T09:21:02.181Z,29.2
2017-05-30T09:21:42.697Z,29.18
2017-05-30T09:22:23.324Z,29.69
2017-05-30T09:23:03.853Z,29.28